sensor_id;sensor_type;location;lat;lon;timestamp;P1;durP1;ratioP1;P2;durP2;ratioP2
64157;SDS011;50449;51.528;5.076;2023-05-29T00:00:11;92.10;;;87.85;;
64157;SDS011;50449;51.528;5.076;2023-05-29T00:02:38;90.60;;;86.40;;
64157;SDS011;50449;51.528;5.076;2023-05-29T00:05:04;90.47;;;86.13;;
64157;SDS011;50449;51.528;5.076;2023-05-29T00:07:30;91.10;;;86.57;;
64157;SDS011;50449;51.528;5.076;2023-05-29T00:09:57;92.47;;;88.15;;
64157;SDS011;50449;51.528;5.076;2023-05-29T00:12:23;90.35;;;86.15;;
64157;SDS011;50449;51.528;5.076;2023-05-29T00:14:48;93.70;;;88.72;;
64157;SDS011;50449;51.528;5.076;2023-05-29T00:17:14;90.68;;;86.38;;
64157;SDS011;50449;51.528;5.076;2023-05-29T00:19:41;89.05;;;84.85;;
64157;SDS011;50449;51.528;5.076;2023-05-29T00:22:07;88.80;;;84.50;;
64157;SDS011;50449;51.528;5.076;2023-05-29T00:24:32;91.20;;;86.63;;
64157;SDS011;50449;51.528;5.076;2023-05-29T00:26:58;86.65;;;82.55;;
64157;SDS011;50449;51.528;5.076;2023-05-29T00:29:23;87.65;;;83.55;;
64157;SDS011;50449;51.528;5.076;2023-05-29T00:31:48;87.18;;;82.78;;
64157;SDS011;50449;51.528;5.076;2023-05-29T00:34:14;87.95;;;83.50;;
64157;SDS011;50449;51.528;5.076;2023-05-29T00:36:40;86.95;;;82.75;;
64157;SDS011;50449;51.528;5.076;2023-05-29T00:39:05;85.95;;;81.63;;
64157;SDS011;50449;51.528;5.076;2023-05-29T00:41:31;87.10;;;82.75;;
64157;SDS011;50449;51.528;5.076;2023-05-29T00:43:56;87.85;;;83.85;;
64157;SDS011;50449;51.528;5.076;2023-05-29T00:46:21;84.63;;;80.72;;
64157;SDS011;50449;51.528;5.076;2023-05-29T00:48:47;85.53;;;81.57;;
64157;SDS011;50449;51.528;5.076;2023-05-29T00:51:14;81.35;;;77.43;;
64157;SDS011;50449;51.528;5.076;2023-05-29T00:53:40;87.00;;;82.63;;
64157;SDS011;50449;51.528;5.076;2023-05-29T00:56:07;82.38;;;78.43;;
64157;SDS011;50449;51.528;5.076;2023-05-29T00:58:34;84.95;;;80.82;;
64157;SDS011;50449;51.528;5.076;2023-05-29T01:00:59;82.85;;;79.00;;
64157;SDS011;50449;51.528;5.076;2023-05-29T01:03:25;82.97;;;78.57;;
64157;SDS011;50449;51.528;5.076;2023-05-29T01:05:51;83.50;;;79.13;;
64157;SDS011;50449;51.528;5.076;2023-05-29T01:08:17;82.82;;;78.72;;
64157;SDS011;50449;51.528;5.076;2023-05-29T01:10:43;81.97;;;78.03;;
64157;SDS011;50449;51.528;5.076;2023-05-29T01:13:19;81.93;;;77.95;;
64157;SDS011;50449;51.528;5.076;2023-05-29T01:18:51;80.68;;;76.78;;
64157;SDS011;50449;51.528;5.076;2023-05-29T01:21:26;77.82;;;74.25;;
64157;SDS011;50449;51.528;5.076;2023-05-29T01:24:14;79.72;;;75.63;;
64157;SDS011;50449;51.528;5.076;2023-05-29T01:26:53;80.15;;;76.13;;
64157;SDS011;50449;51.528;5.076;2023-05-29T01:29:21;82.47;;;78.40;;
64157;SDS011;50449;51.528;5.076;2023-05-29T01:31:50;81.55;;;77.47;;
64157;SDS011;50449;51.528;5.076;2023-05-29T01:34:18;80.57;;;75.60;;
64157;SDS011;50449;51.528;5.076;2023-05-29T01:36:44;79.65;;;75.95;;
64157;SDS011;50449;51.528;5.076;2023-05-29T01:39:11;77.93;;;74.28;;
64157;SDS011;50449;51.528;5.076;2023-05-29T01:41:37;80.10;;;76.30;;
64157;SDS011;50449;51.528;5.076;2023-05-29T01:44:05;81.30;;;77.30;;
64157;SDS011;50449;51.528;5.076;2023-05-29T01:46:35;79.18;;;75.20;;
64157;SDS011;50449;51.528;5.076;2023-05-29T01:49:02;81.40;;;77.27;;
64157;SDS011;50449;51.528;5.076;2023-05-29T01:51:29;77.93;;;74.18;;
64157;SDS011;50449;51.528;5.076;2023-05-29T01:53:56;79.45;;;75.45;;
64157;SDS011;50449;51.528;5.076;2023-05-29T01:56:22;80.03;;;75.72;;
64157;SDS011;50449;51.528;5.076;2023-05-29T01:58:48;78.25;;;74.20;;
64157;SDS011;50449;51.528;5.076;2023-05-29T02:01:15;75.22;;;71.50;;
64157;SDS011;50449;51.528;5.076;2023-05-29T02:03:41;74.03;;;70.07;;
64157;SDS011;50449;51.528;5.076;2023-05-29T02:06:06;77.68;;;73.75;;
64157;SDS011;50449;51.528;5.076;2023-05-29T02:08:32;79.55;;;75.15;;
64157;SDS011;50449;51.528;5.076;2023-05-29T02:10:57;76.88;;;72.82;;
64157;SDS011;50449;51.528;5.076;2023-05-29T02:13:23;72.47;;;69.18;;
64157;SDS011;50449;51.528;5.076;2023-05-29T02:15:48;73.05;;;69.25;;
64157;SDS011;50449;51.528;5.076;2023-05-29T02:18:14;74.97;;;70.47;;
64157;SDS011;50449;51.528;5.076;2023-05-29T02:20:45;72.53;;;68.97;;
64157;SDS011;50449;51.528;5.076;2023-05-29T02:23:11;75.30;;;71.60;;
64157;SDS011;50449;51.528;5.076;2023-05-29T02:25:36;72.47;;;68.88;;
64157;SDS011;50449;51.528;5.076;2023-05-29T02:28:02;70.93;;;67.03;;
64157;SDS011;50449;51.528;5.076;2023-05-29T02:30:28;70.78;;;67.18;;
64157;SDS011;50449;51.528;5.076;2023-05-29T02:32:54;70.80;;;67.20;;
64157;SDS011;50449;51.528;5.076;2023-05-29T02:35:20;69.72;;;65.85;;
64157;SDS011;50449;51.528;5.076;2023-05-29T02:37:48;70.20;;;66.67;;
64157;SDS011;50449;51.528;5.076;2023-05-29T02:40:17;70.90;;;67.40;;
64157;SDS011;50449;51.528;5.076;2023-05-29T02:42:43;70.25;;;66.60;;
64157;SDS011;50449;51.528;5.076;2023-05-29T02:45:09;70.47;;;67.18;;
64157;SDS011;50449;51.528;5.076;2023-05-29T02:47:35;70.90;;;67.53;;
64157;SDS011;50449;51.528;5.076;2023-05-29T02:50:01;71.72;;;67.95;;
64157;SDS011;50449;51.528;5.076;2023-05-29T02:52:27;73.88;;;69.70;;
64157;SDS011;50449;51.528;5.076;2023-05-29T02:54:53;70.70;;;67.28;;
64157;SDS011;50449;51.528;5.076;2023-05-29T02:57:19;70.70;;;67.20;;
64157;SDS011;50449;51.528;5.076;2023-05-29T02:59:45;71.63;;;67.32;;
64157;SDS011;50449;51.528;5.076;2023-05-29T03:02:11;67.30;;;64.22;;
64157;SDS011;50449;51.528;5.076;2023-05-29T03:04:36;68.53;;;65.22;;
64157;SDS011;50449;51.528;5.076;2023-05-29T03:07:02;67.93;;;64.63;;
64157;SDS011;50449;51.528;5.076;2023-05-29T03:09:27;70.20;;;66.35;;
64157;SDS011;50449;51.528;5.076;2023-05-29T03:11:53;69.55;;;65.75;;
64157;SDS011;50449;51.528;5.076;2023-05-29T03:14:18;70.53;;;67.07;;
64157;SDS011;50449;51.528;5.076;2023-05-29T03:16:44;71.47;;;67.72;;
64157;SDS011;50449;51.528;5.076;2023-05-29T03:19:10;68.15;;;64.63;;
64157;SDS011;50449;51.528;5.076;2023-05-29T03:21:36;69.75;;;65.90;;
64157;SDS011;50449;51.528;5.076;2023-05-29T03:24:01;67.93;;;64.30;;
64157;SDS011;50449;51.528;5.076;2023-05-29T03:26:30;67.68;;;64.25;;
64157;SDS011;50449;51.528;5.076;2023-05-29T03:28:56;68.68;;;64.70;;
64157;SDS011;50449;51.528;5.076;2023-05-29T03:31:21;65.10;;;62.20;;
64157;SDS011;50449;51.528;5.076;2023-05-29T03:33:47;68.55;;;64.72;;
64157;SDS011;50449;51.528;5.076;2023-05-29T03:36:13;68.43;;;65.13;;
64157;SDS011;50449;51.528;5.076;2023-05-29T03:38:38;69.68;;;65.90;;
64157;SDS011;50449;51.528;5.076;2023-05-29T03:41:04;67.75;;;64.25;;
64157;SDS011;50449;51.528;5.076;2023-05-29T03:43:30;67.70;;;63.75;;
64157;SDS011;50449;51.528;5.076;2023-05-29T03:45:55;67.68;;;64.47;;
64157;SDS011;50449;51.528;5.076;2023-05-29T03:48:21;69.30;;;64.35;;
64157;SDS011;50449;51.528;5.076;2023-05-29T03:50:46;68.00;;;64.10;;
64157;SDS011;50449;51.528;5.076;2023-05-29T03:53:12;69.07;;;64.57;;
64157;SDS011;50449;51.528;5.076;2023-05-29T03:55:37;67.43;;;63.97;;
64157;SDS011;50449;51.528;5.076;2023-05-29T03:58:03;67.45;;;63.50;;
64157;SDS011;50449;51.528;5.076;2023-05-29T04:00:28;64.95;;;61.25;;
64157;SDS011;50449;51.528;5.076;2023-05-29T04:02:55;64.53;;;60.47;;
64157;SDS011;50449;51.528;5.076;2023-05-29T04:05:21;64.45;;;61.08;;
64157;SDS011;50449;51.528;5.076;2023-05-29T04:07:46;64.47;;;60.15;;
64157;SDS011;50449;51.528;5.076;2023-05-29T04:10:12;68.05;;;64.22;;
64157;SDS011;50449;51.528;5.076;2023-05-29T04:12:37;63.65;;;59.80;;
64157;SDS011;50449;51.528;5.076;2023-05-29T04:15:03;64.45;;;60.83;;
64157;SDS011;50449;51.528;5.076;2023-05-29T04:17:29;63.63;;;60.05;;
64157;SDS011;50449;51.528;5.076;2023-05-29T04:19:54;63.75;;;60.58;;
64157;SDS011;50449;51.528;5.076;2023-05-29T04:22:20;63.22;;;59.92;;
64157;SDS011;50449;51.528;5.076;2023-05-29T04:24:45;64.03;;;60.33;;
64157;SDS011;50449;51.528;5.076;2023-05-29T04:27:11;63.90;;;60.40;;
64157;SDS011;50449;51.528;5.076;2023-05-29T04:29:41;62.78;;;59.88;;
64157;SDS011;50449;51.528;5.076;2023-05-29T04:32:10;64.90;;;61.70;;
64157;SDS011;50449;51.528;5.076;2023-05-29T04:34:36;64.55;;;61.15;;
64157;SDS011;50449;51.528;5.076;2023-05-29T04:37:03;63.38;;;59.72;;
64157;SDS011;50449;51.528;5.076;2023-05-29T04:39:30;62.67;;;58.72;;
64157;SDS011;50449;51.528;5.076;2023-05-29T04:41:55;60.75;;;57.70;;
64157;SDS011;50449;51.528;5.076;2023-05-29T04:44:23;61.67;;;58.78;;
64157;SDS011;50449;51.528;5.076;2023-05-29T04:46:51;61.03;;;58.15;;
64157;SDS011;50449;51.528;5.076;2023-05-29T04:49:17;62.63;;;58.92;;
64157;SDS011;50449;51.528;5.076;2023-05-29T04:51:42;62.88;;;59.00;;
64157;SDS011;50449;51.528;5.076;2023-05-29T04:54:08;63.42;;;59.97;;
64157;SDS011;50449;51.528;5.076;2023-05-29T04:56:34;61.63;;;58.53;;
64157;SDS011;50449;51.528;5.076;2023-05-29T04:59:00;59.85;;;56.58;;
64157;SDS011;50449;51.528;5.076;2023-05-29T05:01:25;59.95;;;57.15;;
64157;SDS011;50449;51.528;5.076;2023-05-29T05:03:51;61.90;;;58.35;;
64157;SDS011;50449;51.528;5.076;2023-05-29T05:06:20;61.45;;;58.10;;
64157;SDS011;50449;51.528;5.076;2023-05-29T05:08:50;59.85;;;56.95;;
64157;SDS011;50449;51.528;5.076;2023-05-29T05:11:16;61.58;;;58.30;;
64157;SDS011;50449;51.528;5.076;2023-05-29T05:13:42;61.67;;;57.88;;
64157;SDS011;50449;51.528;5.076;2023-05-29T05:16:08;61.33;;;58.35;;
64157;SDS011;50449;51.528;5.076;2023-05-29T05:18:33;58.78;;;55.90;;
64157;SDS011;50449;51.528;5.076;2023-05-29T05:20:59;59.22;;;56.00;;
64157;SDS011;50449;51.528;5.076;2023-05-29T05:23:24;58.40;;;55.08;;
64157;SDS011;50449;51.528;5.076;2023-05-29T05:25:50;58.10;;;54.88;;
64157;SDS011;50449;51.528;5.076;2023-05-29T05:28:15;59.17;;;55.92;;
64157;SDS011;50449;51.528;5.076;2023-05-29T05:30:41;60.83;;;57.67;;
64157;SDS011;50449;51.528;5.076;2023-05-29T05:33:06;61.40;;;57.75;;
64157;SDS011;50449;51.528;5.076;2023-05-29T05:35:32;57.67;;;54.70;;
64157;SDS011;50449;51.528;5.076;2023-05-29T05:37:58;57.40;;;54.70;;
64157;SDS011;50449;51.528;5.076;2023-05-29T05:40:25;60.95;;;57.03;;
64157;SDS011;50449;51.528;5.076;2023-05-29T05:42:51;57.67;;;54.67;;
64157;SDS011;50449;51.528;5.076;2023-05-29T05:45:16;60.35;;;56.60;;
64157;SDS011;50449;51.528;5.076;2023-05-29T05:47:42;57.80;;;54.65;;
64157;SDS011;50449;51.528;5.076;2023-05-29T05:50:07;57.38;;;53.95;;
64157;SDS011;50449;51.528;5.076;2023-05-29T05:52:33;57.65;;;54.97;;
64157;SDS011;50449;51.528;5.076;2023-05-29T05:54:58;59.42;;;55.90;;
64157;SDS011;50449;51.528;5.076;2023-05-29T05:57:24;59.78;;;56.13;;
64157;SDS011;50449;51.528;5.076;2023-05-29T05:59:50;56.58;;;53.67;;
64157;SDS011;50449;51.528;5.076;2023-05-29T06:02:16;57.72;;;54.50;;
64157;SDS011;50449;51.528;5.076;2023-05-29T06:04:41;56.50;;;53.70;;
64157;SDS011;50449;51.528;5.076;2023-05-29T06:07:06;55.10;;;52.60;;
64157;SDS011;50449;51.528;5.076;2023-05-29T06:09:32;55.88;;;52.88;;
64157;SDS011;50449;51.528;5.076;2023-05-29T06:11:57;57.90;;;55.20;;
64157;SDS011;50449;51.528;5.076;2023-05-29T06:14:24;57.40;;;54.30;;
64157;SDS011;50449;51.528;5.076;2023-05-29T06:16:49;57.53;;;54.45;;
64157;SDS011;50449;51.528;5.076;2023-05-29T06:19:15;55.90;;;52.72;;
64157;SDS011;50449;51.528;5.076;2023-05-29T06:21:41;59.83;;;56.45;;
64157;SDS011;50449;51.528;5.076;2023-05-29T06:24:06;57.83;;;54.53;;
64157;SDS011;50449;51.528;5.076;2023-05-29T06:26:32;57.00;;;53.70;;
64157;SDS011;50449;51.528;5.076;2023-05-29T06:28:57;55.30;;;51.88;;
64157;SDS011;50449;51.528;5.076;2023-05-29T06:31:23;57.65;;;54.05;;
64157;SDS011;50449;51.528;5.076;2023-05-29T06:33:48;54.80;;;52.13;;
64157;SDS011;50449;51.528;5.076;2023-05-29T06:36:13;55.88;;;52.92;;
64157;SDS011;50449;51.528;5.076;2023-05-29T06:38:39;57.35;;;54.00;;
64157;SDS011;50449;51.528;5.076;2023-05-29T06:41:05;59.92;;;56.10;;
64157;SDS011;50449;51.528;5.076;2023-05-29T06:43:30;57.08;;;53.95;;
64157;SDS011;50449;51.528;5.076;2023-05-29T06:45:55;58.42;;;55.20;;
64157;SDS011;50449;51.528;5.076;2023-05-29T06:48:21;58.17;;;54.78;;
64157;SDS011;50449;51.528;5.076;2023-05-29T06:50:47;56.90;;;53.78;;
64157;SDS011;50449;51.528;5.076;2023-05-29T06:53:13;60.15;;;56.85;;
64157;SDS011;50449;51.528;5.076;2023-05-29T06:55:39;58.83;;;55.45;;
64157;SDS011;50449;51.528;5.076;2023-05-29T06:58:07;59.95;;;55.17;;
64157;SDS011;50449;51.528;5.076;2023-05-29T07:00:33;57.83;;;54.72;;
64157;SDS011;50449;51.528;5.076;2023-05-29T07:02:58;59.15;;;56.17;;
64157;SDS011;50449;51.528;5.076;2023-05-29T07:05:23;58.78;;;55.42;;
64157;SDS011;50449;51.528;5.076;2023-05-29T07:07:49;56.88;;;53.70;;
64157;SDS011;50449;51.528;5.076;2023-05-29T07:10:14;55.88;;;52.72;;
64157;SDS011;50449;51.528;5.076;2023-05-29T07:12:40;57.75;;;54.67;;
64157;SDS011;50449;51.528;5.076;2023-05-29T07:15:05;58.85;;;55.22;;
64157;SDS011;50449;51.528;5.076;2023-05-29T07:17:31;59.20;;;56.20;;
64157;SDS011;50449;51.528;5.076;2023-05-29T07:19:56;57.35;;;54.35;;
64157;SDS011;50449;51.528;5.076;2023-05-29T07:22:22;57.83;;;55.03;;
64157;SDS011;50449;51.528;5.076;2023-05-29T07:24:47;58.45;;;55.55;;
64157;SDS011;50449;51.528;5.076;2023-05-29T07:27:13;58.10;;;54.72;;
64157;SDS011;50449;51.528;5.076;2023-05-29T07:29:38;59.20;;;55.70;;
64157;SDS011;50449;51.528;5.076;2023-05-29T07:32:03;57.22;;;54.28;;
64157;SDS011;50449;51.528;5.076;2023-05-29T07:34:29;57.50;;;54.35;;
64157;SDS011;50449;51.528;5.076;2023-05-29T07:37:04;57.17;;;54.15;;
64157;SDS011;50449;51.528;5.076;2023-05-29T07:39:31;57.50;;;54.70;;
64157;SDS011;50449;51.528;5.076;2023-05-29T07:41:58;59.22;;;56.03;;
64157;SDS011;50449;51.528;5.076;2023-05-29T07:44:26;58.28;;;55.28;;
64157;SDS011;50449;51.528;5.076;2023-05-29T07:46:51;59.92;;;56.72;;
64157;SDS011;50449;51.528;5.076;2023-05-29T07:49:17;58.90;;;55.90;;
64157;SDS011;50449;51.528;5.076;2023-05-29T07:51:42;58.10;;;54.83;;
64157;SDS011;50449;51.528;5.076;2023-05-29T07:54:08;58.17;;;55.55;;
64157;SDS011;50449;51.528;5.076;2023-05-29T07:56:33;61.30;;;57.83;;
64157;SDS011;50449;51.528;5.076;2023-05-29T07:58:59;60.53;;;57.50;;
64157;SDS011;50449;51.528;5.076;2023-05-29T08:01:25;61.40;;;58.40;;
64157;SDS011;50449;51.528;5.076;2023-05-29T08:03:51;58.17;;;55.28;;
64157;SDS011;50449;51.528;5.076;2023-05-29T08:06:17;58.05;;;54.47;;
64157;SDS011;50449;51.528;5.076;2023-05-29T08:08:43;59.95;;;56.80;;
64157;SDS011;50449;51.528;5.076;2023-05-29T08:11:09;56.72;;;53.72;;
64157;SDS011;50449;51.528;5.076;2023-05-29T08:13:35;59.97;;;56.03;;
64157;SDS011;50449;51.528;5.076;2023-05-29T08:16:01;58.90;;;55.65;;
64157;SDS011;50449;51.528;5.076;2023-05-29T08:18:30;60.17;;;56.75;;
64157;SDS011;50449;51.528;5.076;2023-05-29T08:20:56;58.15;;;55.35;;
64157;SDS011;50449;51.528;5.076;2023-05-29T08:23:21;59.50;;;56.53;;
64157;SDS011;50449;51.528;5.076;2023-05-29T08:25:47;59.45;;;55.88;;
64157;SDS011;50449;51.528;5.076;2023-05-29T08:28:13;61.03;;;57.75;;
64157;SDS011;50449;51.528;5.076;2023-05-29T08:30:39;61.80;;;58.35;;
64157;SDS011;50449;51.528;5.076;2023-05-29T08:33:05;62.25;;;58.85;;
64157;SDS011;50449;51.528;5.076;2023-05-29T08:35:30;63.50;;;59.97;;
64157;SDS011;50449;51.528;5.076;2023-05-29T08:37:55;62.17;;;59.17;;
64157;SDS011;50449;51.528;5.076;2023-05-29T08:40:21;62.10;;;59.00;;
64157;SDS011;50449;51.528;5.076;2023-05-29T08:42:47;63.38;;;60.28;;
64157;SDS011;50449;51.528;5.076;2023-05-29T08:45:19;63.42;;;60.42;;
64157;SDS011;50449;51.528;5.076;2023-05-29T08:47:48;64.70;;;60.63;;
64157;SDS011;50449;51.528;5.076;2023-05-29T08:50:17;65.45;;;61.83;;
64157;SDS011;50449;51.528;5.076;2023-05-29T08:52:43;64.35;;;60.88;;
64157;SDS011;50449;51.528;5.076;2023-05-29T08:55:08;64.47;;;61.58;;
64157;SDS011;50449;51.528;5.076;2023-05-29T08:57:34;67.60;;;63.85;;
64157;SDS011;50449;51.528;5.076;2023-05-29T09:00:02;64.63;;;61.50;;
64157;SDS011;50449;51.528;5.076;2023-05-29T09:02:40;68.32;;;64.95;;
64157;SDS011;50449;51.528;5.076;2023-05-29T09:05:08;68.05;;;64.47;;
64157;SDS011;50449;51.528;5.076;2023-05-29T09:07:35;68.60;;;65.10;;
64157;SDS011;50449;51.528;5.076;2023-05-29T09:10:03;68.38;;;65.03;;
64157;SDS011;50449;51.528;5.076;2023-05-29T09:12:31;68.97;;;65.47;;
64157;SDS011;50449;51.528;5.076;2023-05-29T09:14:56;66.15;;;63.10;;
64157;SDS011;50449;51.528;5.076;2023-05-29T09:17:22;69.53;;;65.40;;
64157;SDS011;50449;51.528;5.076;2023-05-29T09:19:48;69.50;;;65.85;;
64157;SDS011;50449;51.528;5.076;2023-05-29T09:22:14;70.22;;;66.82;;
64157;SDS011;50449;51.528;5.076;2023-05-29T09:24:40;71.45;;;67.63;;
64157;SDS011;50449;51.528;5.076;2023-05-29T09:27:08;71.68;;;68.40;;
64157;SDS011;50449;51.528;5.076;2023-05-29T09:29:40;71.97;;;68.43;;
64157;SDS011;50449;51.528;5.076;2023-05-29T09:32:07;72.82;;;69.43;;
64157;SDS011;50449;51.528;5.076;2023-05-29T09:34:34;72.65;;;69.35;;
64157;SDS011;50449;51.528;5.076;2023-05-29T09:37:03;73.18;;;69.78;;
64157;SDS011;50449;51.528;5.076;2023-05-29T09:42:14;72.68;;;69.07;;
64157;SDS011;50449;51.528;5.076;2023-05-29T09:44:41;75.75;;;72.00;;
64157;SDS011;50449;51.528;5.076;2023-05-29T09:47:07;73.60;;;69.43;;
64157;SDS011;50449;51.528;5.076;2023-05-29T09:49:33;76.40;;;72.60;;
64157;SDS011;50449;51.528;5.076;2023-05-29T09:51:59;76.38;;;72.68;;
64157;SDS011;50449;51.528;5.076;2023-05-29T09:54:26;78.10;;;74.07;;
64157;SDS011;50449;51.528;5.076;2023-05-29T09:56:56;75.72;;;72.22;;
64157;SDS011;50449;51.528;5.076;2023-05-29T09:59:23;79.50;;;75.05;;
64157;SDS011;50449;51.528;5.076;2023-05-29T10:01:49;77.88;;;73.90;;
64157;SDS011;50449;51.528;5.076;2023-05-29T10:04:29;77.88;;;74.18;;
64157;SDS011;50449;51.528;5.076;2023-05-29T10:06:57;81.70;;;77.70;;
64157;SDS011;50449;51.528;5.076;2023-05-29T10:09:29;77.53;;;73.35;;
64157;SDS011;50449;51.528;5.076;2023-05-29T10:11:55;81.10;;;77.20;;
64157;SDS011;50449;51.528;5.076;2023-05-29T10:14:25;83.63;;;79.75;;
64157;SDS011;50449;51.528;5.076;2023-05-29T10:16:52;82.82;;;79.03;;
64157;SDS011;50449;51.528;5.076;2023-05-29T10:19:24;80.55;;;76.55;;
64157;SDS011;50449;51.528;5.076;2023-05-29T10:21:52;83.78;;;79.97;;
64157;SDS011;50449;51.528;5.076;2023-05-29T10:24:19;84.95;;;80.60;;
64157;SDS011;50449;51.528;5.076;2023-05-29T10:26:47;83.68;;;79.78;;
64157;SDS011;50449;51.528;5.076;2023-05-29T10:29:37;83.10;;;79.10;;
64157;SDS011;50449;51.528;5.076;2023-05-29T10:32:55;82.75;;;79.05;;
64157;SDS011;50449;51.528;5.076;2023-05-29T10:37:40;88.78;;;84.03;;
64157;SDS011;50449;51.528;5.076;2023-05-29T10:40:10;84.78;;;80.68;;
64157;SDS011;50449;51.528;5.076;2023-05-29T10:42:46;90.00;;;85.70;;
64157;SDS011;50449;51.528;5.076;2023-05-29T10:45:59;87.93;;;83.53;;
64157;SDS011;50449;51.528;5.076;2023-05-29T10:53:32;86.03;;;82.13;;
64157;SDS011;50449;51.528;5.076;2023-05-29T10:56:00;89.53;;;85.28;;
64157;SDS011;50449;51.528;5.076;2023-05-29T10:58:30;89.03;;;84.63;;
64157;SDS011;50449;51.528;5.076;2023-05-29T11:00:56;89.50;;;85.10;;
64157;SDS011;50449;51.528;5.076;2023-05-29T11:03:24;90.88;;;86.55;;
64157;SDS011;50449;51.528;5.076;2023-05-29T11:06:02;93.60;;;88.78;;
64157;SDS011;50449;51.528;5.076;2023-05-29T11:08:41;93.07;;;88.72;;
64157;SDS011;50449;51.528;5.076;2023-05-29T11:11:07;92.55;;;88.10;;
64157;SDS011;50449;51.528;5.076;2023-05-29T11:13:40;90.25;;;85.95;;
64157;SDS011;50449;51.528;5.076;2023-05-29T11:16:13;91.68;;;86.85;;
64157;SDS011;50449;51.528;5.076;2023-05-29T11:18:51;95.80;;;91.30;;
64157;SDS011;50449;51.528;5.076;2023-05-29T11:24:08;94.05;;;89.85;;
64157;SDS011;50449;51.528;5.076;2023-05-29T11:26:46;94.07;;;89.45;;
64157;SDS011;50449;51.528;5.076;2023-05-29T11:29:12;96.15;;;91.63;;
64157;SDS011;50449;51.528;5.076;2023-05-29T11:31:38;96.22;;;91.70;;
64157;SDS011;50449;51.528;5.076;2023-05-29T11:34:05;97.07;;;92.68;;
64157;SDS011;50449;51.528;5.076;2023-05-29T11:36:34;94.07;;;89.65;;
64157;SDS011;50449;51.528;5.076;2023-05-29T11:39:00;99.15;;;94.35;;
64157;SDS011;50449;51.528;5.076;2023-05-29T11:41:26;95.45;;;91.10;;
64157;SDS011;50449;51.528;5.076;2023-05-29T11:43:58;99.97;;;95.15;;
64157;SDS011;50449;51.528;5.076;2023-05-29T11:46:26;96.18;;;91.68;;
64157;SDS011;50449;51.528;5.076;2023-05-29T11:48:53;97.10;;;92.38;;
64157;SDS011;50449;51.528;5.076;2023-05-29T11:51:18;97.90;;;93.25;;
64157;SDS011;50449;51.528;5.076;2023-05-29T11:53:46;98.32;;;93.93;;
64157;SDS011;50449;51.528;5.076;2023-05-29T11:56:12;101.38;;;96.53;;
64157;SDS011;50449;51.528;5.076;2023-05-29T11:58:38;99.18;;;94.78;;
64157;SDS011;50449;51.528;5.076;2023-05-29T12:01:05;103.00;;;97.75;;
64157;SDS011;50449;51.528;5.076;2023-05-29T12:03:36;102.45;;;96.80;;
64157;SDS011;50449;51.528;5.076;2023-05-29T12:06:06;101.70;;;96.57;;
64157;SDS011;50449;51.528;5.076;2023-05-29T12:08:33;99.70;;;95.10;;
64157;SDS011;50449;51.528;5.076;2023-05-29T12:10:59;102.53;;;97.60;;
64157;SDS011;50449;51.528;5.076;2023-05-29T12:13:24;99.45;;;95.05;;
64157;SDS011;50449;51.528;5.076;2023-05-29T12:15:52;103.45;;;98.20;;
64157;SDS011;50449;51.528;5.076;2023-05-29T12:18:19;101.25;;;96.63;;
64157;SDS011;50449;51.528;5.076;2023-05-29T12:20:45;104.57;;;99.30;;
64157;SDS011;50449;51.528;5.076;2023-05-29T12:23:11;102.22;;;97.75;;
64157;SDS011;50449;51.528;5.076;2023-05-29T12:25:37;101.30;;;96.78;;
64157;SDS011;50449;51.528;5.076;2023-05-29T12:28:02;103.53;;;98.43;;
64157;SDS011;50449;51.528;5.076;2023-05-29T12:30:28;105.45;;;100.40;;
64157;SDS011;50449;51.528;5.076;2023-05-29T12:32:53;103.10;;;98.50;;
64157;SDS011;50449;51.528;5.076;2023-05-29T12:35:19;103.32;;;98.28;;
64157;SDS011;50449;51.528;5.076;2023-05-29T12:37:47;106.93;;;101.28;;
64157;SDS011;50449;51.528;5.076;2023-05-29T12:40:47;101.38;;;96.80;;
64157;SDS011;50449;51.528;5.076;2023-05-29T12:43:13;101.73;;;96.80;;
64157;SDS011;50449;51.528;5.076;2023-05-29T12:45:39;104.15;;;99.30;;
64157;SDS011;50449;51.528;5.076;2023-05-29T12:48:05;103.47;;;98.75;;
64157;SDS011;50449;51.528;5.076;2023-05-29T12:50:32;104.72;;;99.90;;
64157;SDS011;50449;51.528;5.076;2023-05-29T12:53:03;107.90;;;102.63;;
64157;SDS011;50449;51.528;5.076;2023-05-29T12:55:34;109.47;;;104.40;;
64157;SDS011;50449;51.528;5.076;2023-05-29T12:58:04;106.80;;;100.60;;
64157;SDS011;50449;51.528;5.076;2023-05-29T13:00:31;107.95;;;103.05;;
64157;SDS011;50449;51.528;5.076;2023-05-29T13:02:58;106.60;;;101.45;;
64157;SDS011;50449;51.528;5.076;2023-05-29T13:05:23;103.82;;;98.78;;
64157;SDS011;50449;51.528;5.076;2023-05-29T13:07:49;105.18;;;100.40;;
64157;SDS011;50449;51.528;5.076;2023-05-29T13:10:16;107.50;;;102.50;;
64157;SDS011;50449;51.528;5.076;2023-05-29T13:12:42;106.80;;;101.75;;
64157;SDS011;50449;51.528;5.076;2023-05-29T13:15:09;102.97;;;97.82;;
64157;SDS011;50449;51.528;5.076;2023-05-29T13:17:35;107.25;;;102.30;;
64157;SDS011;50449;51.528;5.076;2023-05-29T13:20:01;105.82;;;100.25;;
64157;SDS011;50449;51.528;5.076;2023-05-29T13:22:26;103.25;;;98.50;;
64157;SDS011;50449;51.528;5.076;2023-05-29T13:24:59;105.10;;;99.97;;
64157;SDS011;50449;51.528;5.076;2023-05-29T13:27:25;107.60;;;102.32;;
64157;SDS011;50449;51.528;5.076;2023-05-29T13:29:51;104.32;;;99.50;;
64157;SDS011;50449;51.528;5.076;2023-05-29T13:32:17;104.90;;;99.72;;
64157;SDS011;50449;51.528;5.076;2023-05-29T13:34:42;103.05;;;98.25;;
64157;SDS011;50449;51.528;5.076;2023-05-29T13:37:07;105.95;;;101.00;;
64157;SDS011;50449;51.528;5.076;2023-05-29T13:39:33;107.00;;;101.85;;
64157;SDS011;50449;51.528;5.076;2023-05-29T13:41:58;107.18;;;102.05;;
64157;SDS011;50449;51.528;5.076;2023-05-29T13:44:24;106.55;;;101.65;;
64157;SDS011;50449;51.528;5.076;2023-05-29T13:46:49;108.03;;;102.68;;
64157;SDS011;50449;51.528;5.076;2023-05-29T13:49:15;106.45;;;100.97;;
64157;SDS011;50449;51.528;5.076;2023-05-29T13:51:41;110.00;;;105.10;;
64157;SDS011;50449;51.528;5.076;2023-05-29T13:54:06;109.18;;;104.18;;
64157;SDS011;50449;51.528;5.076;2023-05-29T13:56:32;106.20;;;101.13;;
64157;SDS011;50449;51.528;5.076;2023-05-29T13:58:57;111.35;;;106.07;;
64157;SDS011;50449;51.528;5.076;2023-05-29T14:01:28;108.10;;;103.10;;
64157;SDS011;50449;51.528;5.076;2023-05-29T14:03:55;107.28;;;102.28;;
64157;SDS011;50449;51.528;5.076;2023-05-29T14:06:20;112.20;;;107.10;;
64157;SDS011;50449;51.528;5.076;2023-05-29T14:08:46;105.80;;;100.60;;
64157;SDS011;50449;51.528;5.076;2023-05-29T14:11:11;107.95;;;103.03;;
64157;SDS011;50449;51.528;5.076;2023-05-29T14:13:37;110.55;;;105.30;;
64157;SDS011;50449;51.528;5.076;2023-05-29T14:16:02;102.97;;;98.18;;
64157;SDS011;50449;51.528;5.076;2023-05-29T14:18:27;108.32;;;103.57;;
64157;SDS011;50449;51.528;5.076;2023-05-29T14:20:53;110.63;;;105.55;;
64157;SDS011;50449;51.528;5.076;2023-05-29T14:23:18;107.90;;;102.97;;
64157;SDS011;50449;51.528;5.076;2023-05-29T14:25:44;110.85;;;106.03;;
64157;SDS011;50449;51.528;5.076;2023-05-29T14:28:09;107.35;;;102.35;;
64157;SDS011;50449;51.528;5.076;2023-05-29T14:30:35;109.88;;;104.53;;
64157;SDS011;50449;51.528;5.076;2023-05-29T14:33:04;106.25;;;101.22;;